Time;durP1;ratioP1;P1;durP2;ratioP2;P2;SDS_P1;SDS_P2;PMS_P1;PMS_P2;Temp;Humidity;BMP_temperature;BMP_pressure;BME280_temperature;BME280_humidity;BME280_pressure;Samples;Min_cycle;Max_cycle;Signal;HPM_P1;HPM_P2
2022/01/05 00:02:13;;;;;;;24.97;7.37;;;6.30;99.90;;;6.40;66.17;100017.13;5072567;28;20560;-70
2022/01/05 00:04:41;;;;;;;17.63;6.90;;;6.30;99.90;;;6.26;65.80;100009.25;5071444;28;20036;-69
2022/01/05 00:07:11;;;;;;;22.45;7.13;;;6.30;99.90;;;6.34;65.53;100015.38;5072538;28;20071;-71
2022/01/05 00:09:40;;;;;;;18.98;6.95;;;6.30;99.90;;;6.32;66.08;100017.13;5072687;28;20048;-70
2022/01/05 00:12:10;;;;;;;18.02;6.43;;;6.30;99.90;;;6.23;66.61;100014.50;5072663;28;20445;-69
2022/01/05 00:14:39;;;;;;;21.55;6.85;;;6.20;99.90;;;6.22;66.83;100017.13;5072519;28;20505;-68
2022/01/05 00:17:08;;;;;;;23.65;7.35;;;6.20;99.90;;;6.10;67.25;100004.88;5072302;28;20074;-74
2022/01/05 00:19:36;;;;;;;21.67;6.78;;;6.10;99.90;;;6.22;67.01;100012.75;5072196;28;20052;-72
2022/01/05 00:22:05;;;;;;;22.05;6.68;;;6.10;99.90;;;6.12;66.92;100015.38;5072224;28;20304;-72
2022/01/05 00:24:36;;;;;;;17.67;6.40;;;6.10;99.90;;;6.21;67.27;100020.66;5072715;28;20195;-70
2022/01/05 00:27:05;;;;;;;18.48;6.57;;;6.10;99.90;;;6.22;66.59;100017.13;5071121;28;20455;-69
2022/01/05 00:29:33;;;;;;;18.02;6.85;;;6.20;99.90;;;6.34;66.69;100015.38;5071018;28;20114;-70
2022/01/05 00:32:05;;;;;;;22.57;7.53;;;6.30;99.90;;;6.35;66.58;100014.50;5072140;28;20073;-69
2022/01/05 00:34:33;;;;;;;20.53;6.43;;;6.30;99.90;;;6.41;66.21;100010.13;5072131;28;20052;-69
2022/01/05 00:37:02;;;;;;;19.80;6.10;;;6.30;99.90;;;6.32;64.78;100014.50;5071972;28;20083;-68
2022/01/05 00:39:30;;;;;;;15.60;6.15;;;6.30;99.90;;;6.27;65.30;100007.50;5072627;28;20052;-69
2022/01/05 00:41:59;;;;;;;20.83;6.67;;;6.30;99.90;;;6.34;64.26;100012.75;5071997;28;20379;-69
2022/01/05 00:44:27;;;;;;;17.33;7.90;;;6.30;99.90;;;6.22;64.00;100009.25;5071902;28;20048;-69
2022/01/05 00:46:56;;;;;;;18.02;6.47;;;6.30;99.90;;;6.26;63.64;100019.75;5071920;28;20040;-70
2022/01/05 00:49:26;;;;;;;18.87;6.87;;;6.20;99.90;;;6.29;62.64;100014.50;5070773;28;20052;-70
2022/01/05 00:51:54;;;;;;;16.83;5.70;;;6.20;99.90;;;6.21;60.93;100018.88;5071860;28;20442;-69
2022/01/05 00:54:23;;;;;;;17.73;6.67;;;6.20;99.90;;;6.09;61.83;100016.28;5072229;28;20752;-69
2022/01/05 00:56:51;;;;;;;16.00;5.80;;;6.10;99.90;;;6.18;61.85;100000.50;5071918;28;20142;-69
2022/01/05 00:59:19;;;;;;;19.60;5.70;;;6.20;99.90;;;6.18;62.83;100016.25;5072732;28;20075;-68
2022/01/05 01:01:48;;;;;;;23.45;7.13;;;6.20;99.90;;;6.30;62.75;100018.00;5072449;28;20072;-69
2022/01/05 01:04:17;;;;;;;19.02;6.07;;;6.20;99.90;;;6.20;63.35;100017.13;5072143;28;20052;-69
2022/01/05 01:06:46;;;;;;;18.27;6.70;;;6.10;99.90;;;6.15;63.41;100026.78;5071849;28;20076;-69
2022/01/05 01:09:15;;;;;;;23.27;6.57;;;6.10;99.90;;;6.01;63.07;100011.88;5071608;28;20585;-69
2022/01/05 01:11:43;;;;;;;18.47;6.63;;;6.10;99.90;;;6.04;62.84;100028.50;5087273;28;20151;-69
2022/01/05 01:14:12;;;;;;;18.00;6.93;;;6.00;99.90;;;6.20;62.06;100022.38;5070418;28;20083;-69
2022/01/05 01:16:40;;;;;;;21.03;6.43;;;6.10;99.90;;;5.62;62.17;99915.66;5071346;28;20115;-68
2022/01/05 01:19:09;;;;;;;25.05;6.95;;;6.20;99.90;;;6.07;62.43;99996.16;5071467;28;20036;-69
2022/01/05 01:21:37;;;;;;;20.23;7.05;;;6.10;99.90;;;6.26;62.63;100018.88;5071949;28;20083;-69
2022/01/05 01:24:07;;;;;;;30.77;8.35;;;6.20;99.90;;;6.07;63.03;100018.03;5071446;28;20119;-68
2022/01/05 01:26:36;;;;;;;22.20;7.03;;;6.10;99.90;;;5.99;63.57;100021.50;5071202;28;20090;-69
2022/01/05 01:29:04;;;;;;;21.20;6.78;;;6.00;99.90;;;6.19;63.69;100028.50;5071399;28;20116;-68
2022/01/05 01:31:33;;;;;;;21.43;7.43;;;6.10;99.90;;;6.04;64.38;100014.53;5071352;28;20443;-69
2022/01/05 01:34:01;;;;;;;21.50;7.93;;;6.00;99.90;;;6.08;64.58;100021.50;5072908;28;20087;-69
2022/01/05 01:36:30;;;;;;;19.33;7.07;;;6.10;99.90;;;6.05;64.79;100014.53;5075736;28;20044;-69
2022/01/05 01:38:59;;;;;;;21.70;6.53;;;6.00;99.90;;;5.99;64.72;99996.16;5075764;28;20078;-70
2022/01/05 01:41:29;;;;;;;19.00;7.40;;;6.10;99.90;;;6.06;65.10;100024.13;5076172;28;20068;-68
2022/01/05 01:43:57;;;;;;;20.30;6.72;;;6.00;99.90;;;5.83;65.37;100004.88;5075653;28;20237;-69
2022/01/05 01:46:26;;;;;;;26.00;7.40;;;5.90;99.90;;;5.96;65.56;100032.88;5075352;28;20103;-69
2022/01/05 01:48:55;;;;;;;29.87;8.40;;;5.90;99.90;;;5.93;66.36;100037.25;5075383;28;20044;-69
2022/01/05 01:51:24;;;;;;;19.87;7.60;;;5.90;99.90;;;5.79;67.87;100024.09;5074187;28;20053;-69
2022/01/05 01:53:53;;;;;;;25.90;7.38;;;5.80;99.90;;;5.95;67.12;100020.66;5075297;28;20091;-69
2022/01/05 01:56:24;;;;;;;20.38;7.05;;;5.90;99.90;;;5.90;66.73;100030.28;5075434;28;20419;-69
2022/01/05 01:58:54;;;;;;;24.40;7.90;;;5.90;99.90;;;5.94;66.86;100039.88;5075245;28;20098;-69
2022/01/05 02:01:22;;;;;;;17.42;8.32;;;5.90;99.90;;;5.86;67.13;100035.50;5075727;28;20045;-69
2022/01/05 02:03:51;;;;;;;24.30;7.47;;;5.80;99.90;;;5.89;66.44;100039.00;5075131;28;20068;-69
2022/01/05 02:06:20;;;;;;;26.73;7.63;;;5.80;99.90;;;5.94;66.48;100042.50;5075354;28;20037;-68
2022/01/05 02:08:49;;;;;;;22.33;7.75;;;5.90;99.90;;;5.82;67.02;100050.34;5073975;28;20062;-69
2022/01/05 02:11:18;;;;;;;25.37;8.00;;;5.90;99.90;;;5.71;68.09;100017.94;5074950;28;20040;-69
2022/01/05 02:13:47;;;;;;;18.73;6.93;;;5.80;99.90;;;5.77;68.68;100017.97;5074801;28;20439;-69
2022/01/05 02:16:29;;;;;;;20.35;7.88;;;5.80;99.90;;;6.11;68.69;100045.13;5074629;28;20444;-68
2022/01/05 02:19:01;;;;;;;27.17;7.00;;;6.00;99.90;;;6.09;68.87;100036.41;5073701;28;20048;-68
2022/01/05 02:21:35;;;;;;;22.60;6.97;;;6.10;99.90;;;6.09;69.16;100037.28;5073573;28;20052;-69
2022/01/05 02:24:06;;;;;;;25.70;7.00;;;6.10;99.90;;;6.06;69.59;100041.63;5073474;28;20457;-68
2022/01/05 02:26:36;;;;;;;24.67;7.23;;;6.10;99.90;;;6.09;69.47;100042.53;5073099;28;20041;-69
2022/01/05 02:29:06;;;;;;;23.80;7.73;;;6.10;99.90;;;6.06;69.54;100046.88;5074403;28;20045;-69
2022/01/05 02:31:35;;;;;;;18.37;7.27;;;6.10;99.90;;;5.95;69.75;100041.63;5074371;28;20119;-69
2022/01/05 02:34:04;;;;;;;23.33;7.83;;;6.00;99.90;;;5.93;70.04;100039.88;5073236;28;20139;-69
2022/01/05 02:36:34;;;;;;;25.70;7.20;;;5.90;99.90;;;6.02;70.15;100040.75;5074142;28;20048;-69
2022/01/05 02:39:03;;;;;;;19.58;7.43;;;6.00;99.90;;;6.09;70.05;100047.78;5074543;28;20124;-69
2022/01/05 02:41:32;;;;;;;29.42;8.43;;;6.10;99.90;;;6.01;71.02;100046.88;5074685;28;20094;-69
2022/01/05 02:44:00;;;;;;;24.98;7.60;;;6.00;99.90;;;5.91;70.70;100034.63;5073050;28;20365;-69
2022/01/05 02:46:29;;;;;;;27.30;8.27;;;6.00;99.90;;;5.88;70.28;100046.88;5074078;28;20056;-69
2022/01/05 02:48:58;;;;;;;22.97;8.37;;;5.90;99.90;;;5.92;70.64;100048.63;5074018;28;20052;-69
2022/01/05 02:51:27;;;;;;;26.50;7.53;;;5.90;99.90;;;5.96;70.38;100042.53;5072873;28;20048;-68
2022/01/05 02:53:57;;;;;;;29.93;8.27;;;5.90;99.90;;;5.95;71.10;100054.75;5074145;28;20045;-69
2022/01/05 02:56:25;;;;;;;28.17;7.80;;;5.90;99.90;;;5.94;71.56;100045.13;5072611;28;20083;-68
2022/01/05 02:58:54;;;;;;;24.13;7.30;;;5.90;99.90;;;5.83;71.48;100052.13;5073935;28;20448;-69
2022/01/05 03:01:22;;;;;;;25.30;7.37;;;5.80;99.90;;;5.90;70.78;100053.00;5074006;28;20115;-68
2022/01/05 03:03:51;;;;;;;32.13;7.53;;;5.80;99.90;;;5.92;71.18;100072.25;5073989;28;20087;-69
2022/01/05 03:06:19;;;;;;;27.80;7.50;;;5.90;99.90;;;5.91;71.30;100071.38;5073907;28;20078;-69
2022/01/05 03:08:47;;;;;;;23.47;7.10;;;5.90;99.90;;;5.99;71.53;100079.25;5073828;28;20045;-69
2022/01/05 03:11:17;;;;;;;23.03;6.93;;;5.90;99.90;;;5.97;72.07;100075.75;5072610;28;20048;-69
2022/01/05 03:13:47;;;;;;;27.35;7.70;;;5.90;99.90;;;5.69;72.46;100021.47;5074247;28;20072;-69
2022/01/05 03:16:15;;;;;;;28.17;8.57;;;5.90;99.90;;;6.02;72.86;100080.13;5073604;28;20570;-69
2022/01/05 03:18:44;;;;;;;21.48;7.70;;;6.00;99.90;;;6.21;72.98;100081.88;5073464;28;20302;-68
2022/01/05 03:21:12;;;;;;;30.33;8.37;;;6.10;99.90;;;6.12;73.49;100081.00;5073361;28;20066;-69
2022/01/05 03:23:45;;;;;;;27.23;8.50;;;6.10;99.90;;;5.45;73.37;99969.84;5073479;28;20075;-69
2022/01/05 03:26:14;;;;;;;31.00;7.88;;;6.10;99.90;;;6.08;74.08;100074.00;5073421;28;20075;-69
2022/01/05 03:28:43;;;;;;;22.80;8.90;;;6.10;99.90;;;6.04;74.34;100086.25;5073705;28;20051;-69
2022/01/05 03:31:12;;;;;;;26.90;6.95;;;6.00;99.90;;;6.02;74.43;100072.25;5073399;28;20117;-69
2022/01/05 03:33:40;;;;;;;28.10;7.20;;;6.00;99.90;;;5.90;74.89;100082.75;5073277;28;20505;-68
2022/01/05 03:36:09;;;;;;;26.87;7.77;;;5.90;99.90;;;5.99;74.29;100080.13;5071843;28;20109;-68
2022/01/05 03:38:37;;;;;;;29.90;7.80;;;5.90;99.90;;;5.64;74.91;100045.06;5073149;28;20045;-69
2022/01/05 03:41:06;;;;;;;34.80;8.37;;;5.90;99.90;;;6.04;74.12;100096.75;5073260;28;20056;-69
2022/01/05 03:43:34;;;;;;;24.00;7.80;;;6.00;99.90;;;6.01;73.67;100096.75;5073491;28;20405;-69
2022/01/05 03:46:04;;;;;;;36.83;8.77;;;6.00;99.90;;;5.95;74.26;100082.75;5073089;28;20103;-69
2022/01/05 03:48:32;;;;;;;30.30;7.90;;;5.90;99.90;;;6.03;74.15;100091.50;5073397;28;20079;-68
2022/01/05 03:51:01;;;;;;;28.60;7.83;;;5.90;99.90;;;6.08;74.23;100092.38;5072339;28;20049;-68
2022/01/05 03:53:29;;;;;;;24.47;7.47;;;6.00;99.90;;;6.05;73.69;100084.50;5071870;28;20044;-68
2022/01/05 03:55:58;;;;;;;21.73;6.87;;;6.00;99.90;;;5.99;73.26;100093.25;5072315;28;20153;-68
2022/01/05 03:58:27;;;;;;;35.90;8.47;;;6.00;99.90;;;6.01;73.36;100115.13;5072758;28;20076;-69
2022/01/05 04:00:55;;;;;;;35.57;8.60;;;5.90;99.90;;;5.93;74.10;100101.13;5072734;28;20052;-69
2022/01/05 04:03:25;;;;;;;26.20;8.20;;;5.90;99.90;;;6.13;73.92;100101.16;5072960;28;20055;-69
2022/01/05 04:05:54;;;;;;;34.55;8.63;;;6.00;99.90;;;6.11;74.28;100106.41;5072633;28;20045;-69
2022/01/05 04:08:22;;;;;;;35.27;8.43;;;6.00;99.90;;;5.82;74.08;100031.97;5072485;28;20070;-69
2022/01/05 04:10:51;;;;;;;28.40;7.78;;;6.10;99.90;;;6.17;73.54;100111.66;5072465;28;20053;-69
2022/01/05 04:13:20;;;;;;;21.70;7.77;;;6.10;99.90;;;6.12;73.56;100109.88;5073031;28;20053;-69
2022/01/05 04:15:48;;;;;;;28.53;7.43;;;6.10;99.90;;;6.20;73.45;100110.75;5072439;28;20095;-68
2022/01/05 04:18:16;;;;;;;27.98;7.75;;;6.20;99.90;;;6.18;72.83;100129.16;5072272;28;20102;-69
2022/01/05 04:20:46;;;;;;;27.15;7.88;;;6.10;99.90;;;6.20;72.92;100129.16;5072314;28;20083;-68
2022/01/05 04:23:14;;;;;;;30.60;7.73;;;6.20;99.90;;;6.21;73.13;100123.88;5072864;28;20102;-68
2022/01/05 04:25:43;;;;;;;23.05;8.10;;;6.20;99.90;;;6.07;72.96;100120.41;5072270;28;20290;-69
2022/01/05 04:28:11;;;;;;;29.60;8.30;;;6.10;99.90;;;6.10;73.28;100123.00;5072427;28;20418;-69
2022/01/05 04:30:40;;;;;;;21.53;7.07;;;6.10;99.90;;;6.04;72.33;100115.13;5072129;28;20131;-69
2022/01/05 04:33:08;;;;;;;29.92;6.95;;;6.00;99.90;;;5.98;72.23;100101.13;5072396;28;20036;-69
2022/01/05 04:35:58;;;;;;;22.47;7.57;;;6.00;99.90;;;6.20;72.29;100127.41;5072131;28;20129;-69
2022/01/05 04:38:27;;;;;;;32.88;7.75;;;6.10;99.90;;;6.19;73.44;100128.25;5070922;28;20102;-69
2022/01/05 04:40:55;;;;;;;28.43;8.40;;;6.10;99.90;;;6.23;73.30;100132.63;5072060;28;20123;-68
2022/01/05 04:43:23;;;;;;;28.63;8.07;;;6.20;99.90;;;6.17;73.91;100130.03;5071977;28;20053;-69
2022/01/05 04:45:57;;;;;;;27.50;8.33;;;6.20;99.90;;;6.16;73.60;100117.78;5072627;28;20063;-69
2022/01/05 04:48:26;;;;;;;25.37;6.73;;;6.10;99.90;;;6.10;73.99;100128.25;5071975;28;20056;-69
2022/01/05 04:50:54;;;;;;;21.97;7.90;;;6.10;99.90;;;6.12;74.16;100129.13;5071982;28;20068;-69
2022/01/05 04:53:24;;;;;;;22.37;7.47;;;6.10;99.90;;;6.13;74.28;100132.66;5070850;28;20060;-69
2022/01/05 04:55:53;;;;;;;24.52;7.22;;;6.10;99.90;;;6.10;73.58;100132.63;5071652;28;20067;-70
2022/01/05 04:58:27;;;;;;;24.27;7.53;;;6.10;99.90;;;5.98;73.43;100151.00;5071812;28;20127;-68
2022/01/05 05:00:55;;;;;;;23.17;6.23;;;6.00;99.90;;;6.09;73.03;100139.66;5072327;28;20135;-69
2022/01/05 05:03:25;;;;;;;24.27;7.33;;;6.10;99.90;;;6.07;73.58;100133.53;5071803;28;20169;-69
2022/01/05 05:05:53;;;;;;;25.53;7.67;;;6.00;99.90;;;6.07;74.07;100143.13;5072169;28;20083;-70
2022/01/05 05:08:21;;;;;;;22.37;7.50;;;6.00;99.90;;;5.39;73.53;100024.88;5071204;28;20076;-69
2022/01/05 05:10:51;;;;;;;25.57;8.33;;;6.00;99.90;;;5.98;74.09;100138.72;5071910;28;20438;-72
2022/01/05 05:13:20;;;;;;;23.30;7.93;;;6.00;99.90;;;6.08;74.02;100140.50;5071633;28;20102;-69
2022/01/05 05:15:48;;;;;;;23.33;8.27;;;6.00;99.90;;;6.05;73.64;100151.00;5072156;28;20131;-71
2022/01/05 05:18:16;;;;;;;32.50;7.70;;;6.00;99.90;;;6.05;73.57;100151.00;5071707;28;20044;-71
2022/01/05 05:20:45;;;;;;;30.70;8.67;;;6.00;99.90;;;6.01;74.03;100138.75;5071523;28;20036;-74
2022/01/05 05:23:14;;;;;;;29.37;8.37;;;6.00;99.90;;;6.07;74.48;100138.78;5070200;28;20102;-76
2022/01/05 05:25:42;;;;;;;31.27;9.17;;;6.10;99.90;;;6.14;74.19;100147.50;5071415;28;20048;-74
2022/01/05 05:28:12;;;;;;;26.53;8.50;;;6.10;99.90;;;6.24;74.85;100150.16;5071495;28;20094;-73
2022/01/05 05:30:40;;;;;;;25.93;7.97;;;6.20;99.90;;;6.30;75.00;100149.28;5071408;28;20067;-73
2022/01/05 05:33:09;;;;;;;29.87;7.90;;;6.30;99.90;;;6.36;74.62;100144.94;5071273;28;20382;-74
2022/01/05 05:35:39;;;;;;;31.73;9.23;;;6.30;99.90;;;6.37;74.24;100133.53;5071316;28;20044;-74
2022/01/05 05:38:08;;;;;;;28.75;8.70;;;6.40;99.90;;;6.42;74.57;100145.81;5071268;28;20076;-73
2022/01/05 05:40:40;;;;;;;32.77;7.87;;;6.40;99.90;;;6.33;74.65;100163.28;5071976;28;20098;-74
2022/01/05 05:43:09;;;;;;;24.27;7.83;;;6.30;99.90;;;6.44;74.93;100149.31;5071337;28;20032;-73
2022/01/05 05:45:39;;;;;;;23.47;8.57;;;6.40;99.90;;;6.43;75.19;100163.31;5071489;28;20040;-74
2022/01/05 05:48:07;;;;;;;38.08;8.32;;;6.40;99.90;;;6.03;74.74;100083.63;5071890;28;20036;-73
2022/01/05 05:50:36;;;;;;;29.90;7.17;;;6.40;99.90;;;6.35;74.66;100151.03;5071187;28;20047;-74
2022/01/05 05:53:05;;;;;;;27.77;8.10;;;6.40;99.90;;;6.40;74.27;100153.69;5071162;28;20087;-73
2022/01/05 05:55:38;;;;;;;28.48;8.00;;;6.40;99.90;;;6.37;74.04;100159.81;5070928;28;20062;-73
2022/01/05 05:58:07;;;;;;;25.63;7.80;;;6.30;99.90;;;6.49;73.60;100158.94;5071419;28;20136;-73
2022/01/05 06:00:35;;;;;;;31.87;8.27;;;6.40;99.90;;;6.46;73.38;100158.94;5070982;28;20516;-73
2022/01/05 06:03:05;;;;;;;27.92;7.38;;;6.50;99.90;;;6.43;73.93;100168.56;5070997;28;20044;-73
2022/01/05 06:05:33;;;;;;;30.58;7.38;;;6.40;99.90;;;6.42;73.97;100145.81;5069847;28;20574;-74
2022/01/05 06:08:02;;;;;;;24.87;7.67;;;6.50;99.90;;;6.58;74.25;100164.19;5071321;28;20059;-73
2022/01/05 06:10:30;;;;;;;25.65;7.78;;;6.50;99.90;;;6.50;74.36;100138.81;5070990;28;20079;-73
2022/01/05 06:12:59;;;;;;;29.43;7.40;;;6.60;99.90;;;6.70;74.67;100165.94;5071071;28;20064;-74
2022/01/05 06:15:32;;;;;;;37.55;8.23;;;6.60;99.90;;;6.69;74.75;100161.56;5071284;28;20056;-73
2022/01/05 06:18:00;;;;;;;30.17;7.63;;;6.70;99.90;;;6.57;75.15;100179.94;5071177;28;20037;-73
2022/01/05 06:20:30;;;;;;;29.40;7.75;;;6.60;99.90;;;6.64;75.15;100165.97;5072886;28;20052;-74
2022/01/05 06:22:59;;;;;;;31.30;7.47;;;6.60;99.90;;;6.53;75.46;100173.81;5074696;28;20513;-73
2022/01/05 06:25:27;;;;;;;25.75;7.75;;;6.50;99.90;;;6.25;75.64;100148.41;5074644;28;20048;-73
2022/01/05 06:27:56;;;;;;;20.77;6.93;;;6.50;99.90;;;6.44;75.61;100171.19;5074647;28;20052;-73
2022/01/05 06:30:24;;;;;;;34.60;7.72;;;6.40;99.90;;;6.41;76.09;100165.06;5074785;28;20489;-74
2022/01/05 06:32:53;;;;;;;23.07;7.37;;;6.40;99.90;;;6.51;76.86;100179.94;5074469;28;20045;-74
2022/01/05 06:35:23;;;;;;;30.08;7.60;;;6.40;99.90;;;6.60;76.72;100190.47;5074356;28;20056;-73
2022/01/05 06:37:53;;;;;;;;;;;6.60;99.90;;;6.59;76.50;100193.97;5074891;28;20062;-77
2022/01/05 06:40:22;;;;;;;;;;;6.60;99.90;;;6.56;77.09;100194.84;5075309;28;19924;-77
2022/01/05 06:42:51;;;;;;;30.47;8.30;;;6.50;99.90;;;6.52;77.48;100195.72;5075001;28;19927;-77
2022/01/05 06:45:23;;;;;;;35.60;8.17;;;6.50;99.90;;;6.51;77.37;100211.47;5074585;28;20044;-74
2022/01/05 06:47:51;;;;;;;29.17;7.80;;;6.50;99.90;;;6.46;76.82;100203.59;5074282;28;20045;-75
2022/01/05 06:50:20;;;;;;;27.40;7.87;;;6.40;99.90;;;6.54;76.17;100211.47;5074166;28;20046;-74
2022/01/05 06:52:49;;;;;;;38.53;8.50;;;6.50;99.90;;;6.48;76.49;100199.22;5074639;28;20045;-72
2022/01/05 06:55:18;;;;;;;35.80;7.60;;;6.50;99.90;;;6.55;76.75;100215.84;5073906;28;20052;-71
2022/01/05 06:57:47;;;;;;;32.63;7.82;;;6.50;99.90;;;6.59;76.66;100218.47;5074098;28;20102;-71
2022/01/05 07:00:16;;;;;;;32.80;7.60;;;6.60;99.90;;;6.14;77.02;100129.13;5074313;28;20096;-71
2022/01/05 07:02:45;;;;;;;36.27;8.27;;;6.60;99.90;;;6.73;76.79;100222.00;5074165;28;20090;-71
2022/01/05 07:05:13;;;;;;;28.60;8.53;;;6.60;99.90;;;6.77;76.70;100225.50;5074071;28;20044;-71
2022/01/05 07:07:42;;;;;;;42.30;8.27;;;6.70;99.90;;;6.82;76.73;100221.13;5074483;28;20082;-72
2022/01/05 07:10:12;;;;;;;32.95;8.60;;;6.70;99.90;;;6.67;77.26;100200.09;5072665;28;20044;-71
2022/01/05 07:12:48;;;;;;;32.95;9.25;;;6.70;99.90;;;6.48;77.75;100208.84;5074281;28;20037;-71
2022/01/05 07:15:17;;;;;;;43.03;7.93;;;6.60;99.90;;;6.59;78.20;100212.34;5074065;28;20098;-71
2022/01/05 07:17:45;;;;;;;36.77;9.00;;;6.60;99.90;;;6.63;77.50;100219.34;5072544;28;20048;-70
2022/01/05 07:20:14;;;;;;;30.75;8.02;;;6.60;99.90;;;6.62;77.95;100233.38;5073706;28;20068;-71
2022/01/05 07:22:42;;;;;;;31.77;8.45;;;6.60;99.90;;;6.71;78.67;100233.38;5072463;28;20052;-71
2022/01/05 07:25:11;;;;;;;33.47;8.73;;;6.60;99.90;;;6.66;78.45;100249.13;5073612;28;20552;-71
2022/01/05 07:27:40;;;;;;;35.13;8.15;;;6.60;99.90;;;6.76;78.55;100255.28;5073683;28;20037;-71
2022/01/05 07:30:12;;;;;;;38.83;8.25;;;6.60;99.90;;;6.71;78.54;100249.16;5074011;28;20043;-71
2022/01/05 07:32:40;;;;;;;28.08;8.50;;;6.60;99.90;;;6.85;78.36;100265.81;5073029;28;20041;-72
2022/01/05 07:35:10;;;;;;;26.42;8.10;;;6.70;99.90;;;6.85;78.30;100258.78;5073588;28;20139;-73
2022/01/05 07:37:38;;;;;;;48.63;9.07;;;6.80;99.90;;;6.89;78.01;100254.44;5073373;28;20079;-72
2022/01/05 07:40:09;;;;;;;38.10;9.32;;;6.80;99.90;;;6.86;77.94;100243.91;5073228;28;20040;-72
2022/01/05 07:42:38;;;;;;;29.17;8.30;;;6.90;99.90;;;7.05;78.04;100248.28;5073254;28;20071;-72
2022/01/05 07:45:11;;;;;;;31.73;7.93;;;7.00;99.90;;;6.91;77.56;100265.81;5073180;28;20398;-72
2022/01/05 07:47:40;;;;;;;32.42;7.20;;;6.90;99.90;;;6.91;77.42;100268.44;5073227;28;20048;-74
2022/01/05 07:50:14;;;;;;;30.10;7.70;;;6.90;99.90;;;6.88;76.93;100265.81;5072087;28;20052;-71
2022/01/05 07:52:44;;;;;;;29.98;8.07;;;6.90;99.90;;;6.89;77.01;100267.56;5073140;28;20045;-73
2022/01/05 07:55:14;;;;;;;26.48;8.43;;;6.90;99.90;;;6.91;77.46;100268.44;5088752;28;20059;-72
2022/01/05 07:57:42;;;;;;;26.58;7.97;;;6.90;99.90;;;6.90;77.33;100278.09;5073155;28;20040;-72
2022/01/05 08:00:14;;;;;;;31.15;8.57;;;6.90;99.90;;;7.03;77.04;100295.59;5072073;28;20052;-73
2022/01/05 08:02:42;;;;;;;36.28;9.95;;;6.90;99.90;;;7.02;77.34;100292.97;5073099;28;20463;-73
2022/01/05 08:05:11;;;;;;;35.17;9.20;;;7.00;99.90;;;6.70;77.55;100244.75;5072084;28;20044;-72
2022/01/05 08:07:40;;;;;;;31.88;7.80;;;6.90;99.90;;;7.01;77.71;100293.84;5073104;28;20044;-71
2022/01/05 08:10:09;;;;;;;42.80;9.43;;;6.90;99.90;;;6.98;77.81;100291.22;5073177;28;20097;-70
2022/01/05 08:12:40;;;;;;;33.13;7.90;;;7.00;99.90;;;6.96;78.25;100298.22;5072975;28;20044;-70
2022/01/05 08:15:09;;;;;;;;;;;6.90;99.90;;;7.03;78.11;100295.59;5073160;28;20040;-71
2022/01/05 08:17:44;;;;;;;30.70;7.13;;;6.90;99.90;;;7.07;78.17;100309.63;5072737;28;19993;-69
2022/01/05 08:20:13;;;;;;;50.03;9.63;;;7.00;99.90;;;7.01;78.97;100312.25;5072868;28;20048;-70
2022/01/05 08:22:43;;;;;;;34.70;8.13;;;6.90;99.90;;;6.90;79.11;100291.22;5072583;28;20106;-72
2022/01/05 08:25:13;;;;;;;33.03;7.85;;;6.90;99.90;;;6.91;79.05;100308.72;5072395;28;20512;-70
2022/01/05 08:27:46;;;;;;;36.50;8.25;;;6.90;99.90;;;6.75;79.36;100300.84;5072748;28;20048;-72
2022/01/05 08:30:16;;;;;;;40.65;9.13;;;6.80;99.90;;;6.94;79.78;100326.28;5072485;28;20087;-74
2022/01/05 08:32:48;;;;;;;32.22;8.23;;;6.80;99.90;;;6.94;79.38;100310.50;5072458;28;20051;-74
2022/01/05 08:35:18;;;;;;;32.70;7.53;;;6.90;99.90;;;6.95;79.32;100322.78;5072252;28;20113;-75
2022/01/05 08:37:46;;;;;;;30.60;8.23;;;6.90;99.90;;;6.81;79.25;100292.97;5072134;28;20045;-74
2022/01/05 08:40:16;;;;;;;38.85;8.10;;;6.90;99.90;;;7.00;79.37;100316.66;5072608;28;20118;-72
2022/01/05 08:42:46;;;;;;;37.78;9.68;;;6.90;99.90;;;6.91;79.42;100306.09;5072777;28;20040;-72
2022/01/05 08:45:16;;;;;;;30.23;8.70;;;7.00;99.90;;;7.01;79.25;100336.78;5072380;28;20050;-72
2022/01/05 08:47:48;;;;;;;36.95;8.63;;;7.00;99.90;;;6.95;79.62;100318.38;5072516;28;20633;-72
2022/01/05 08:50:19;;;;;;;39.85;8.55;;;7.00;99.90;;;7.06;79.06;100337.69;5072653;28;20135;-72
2022/01/05 08:52:49;;;;;;;45.15;9.13;;;7.00;99.90;;;7.04;79.40;100333.31;5072179;28;20461;-70
2022/01/05 08:55:20;;;;;;;28.45;7.60;;;7.00;99.90;;;7.00;79.17;100350.84;5071746;28;20502;-69
2022/01/05 08:57:50;;;;;;;35.65;8.20;;;7.00;99.90;;;7.10;79.19;100362.22;5072189;28;20117;-71
2022/01/05 09:00:19;;;;;;;36.88;9.00;;;7.00;99.90;;;7.11;79.53;100345.56;5070605;28;20408;-70
2022/01/05 09:02:50;;;;;;;35.42;8.80;;;7.10;99.90;;;7.06;79.57;100344.69;5071810;28;20071;-71
2022/01/05 09:05:24;;;;;;;29.20;8.10;;;7.00;99.90;;;7.00;80.06;100358.72;5071957;28;20059;-74
2022/01/05 09:07:52;;;;;;;37.40;9.38;;;7.00;99.90;;;7.16;80.00;100362.25;5071647;28;20152;-74
2022/01/05 09:10:21;;;;;;;45.78;9.40;;;7.00;99.90;;;7.18;79.67;100352.59;5071599;28;20571;-75
2022/01/05 09:12:50;;;;;;;38.28;9.35;;;7.10;99.90;;;7.15;80.10;100363.09;5072042;28;20072;-74
2022/01/05 09:15:18;;;;;;;41.42;8.88;;;7.10;99.90;;;7.06;80.15;100344.69;5070407;28;20140;-75
2022/01/05 09:17:47;;;;;;;36.38;9.45;;;7.10;99.90;;;6.99;80.28;100367.47;5071480;28;20056;-74
2022/01/05 09:20:16;;;;;;;45.15;9.00;;;7.10;99.90;;;7.16;80.58;100381.50;5071491;28;20068;-70
2022/01/05 09:22:45;;;;;;;35.15;9.05;;;7.10;99.90;;;7.18;80.29;100382.38;5071659;28;20041;-70
2022/01/05 09:25:18;;;;;;;34.65;9.27;;;7.10;99.90;;;7.34;80.24;100406.97;5070432;28;20086;-74
2022/01/05 09:27:47;;;;;;;40.90;8.27;;;7.30;99.90;;;7.29;80.35;100395.56;5071434;28;20451;-73
2022/01/05 09:30:17;;;;;;;37.45;8.10;;;7.30;99.90;;;7.27;79.81;100406.09;5071392;28;20044;-73
2022/01/05 09:32:47;;;;;;;33.65;7.70;;;7.20;99.90;;;7.32;79.96;100405.22;5071583;28;20072;-73
2022/01/05 09:35:20;;;;;;;38.63;9.15;;;7.30;99.90;;;7.42;79.67;100404.31;5071268;28;20052;-68
2022/01/05 09:37:55;;;;;;;31.73;8.80;;;7.30;99.90;;;7.37;80.04;100390.31;5071360;28;20049;-73
2022/01/05 09:43:10;;;;;;;47.58;8.60;;;7.40;99.90;;;7.17;79.65;100378.03;5070285;28;20060;-71
2022/01/05 09:45:43;;;;;;;40.58;8.85;;;7.40;99.90;;;7.45;80.13;100423.66;5071974;28;20097;-74
2022/01/05 09:48:29;;;;;;;32.60;7.90;;;7.40;99.90;;;7.43;80.03;100416.63;5071977;28;20468;-71
2022/01/05 09:51:03;;;;;;;33.08;8.65;;;7.40;99.90;;;7.33;80.57;100431.53;5071316;28;20114;-70
2022/01/05 09:53:33;;;;;;;37.67;9.52;;;7.30;99.90;;;7.37;81.18;100435.03;5071341;28;20486;-70
2022/01/05 09:56:21;;;;;;;38.53;9.25;;;7.30;99.90;;;7.38;81.81;100448.16;5075179;28;20502;-73
2022/01/05 09:58:50;;;;;;;39.20;8.70;;;7.30;99.90;;;7.32;82.24;100459.56;5074052;28;20502;-71
2022/01/05 10:01:18;;;;;;;37.97;8.77;;;7.30;99.90;;;7.23;83.09;100437.63;5075455;28;20087;-73
2022/01/05 10:03:47;;;;;;;47.13;9.23;;;7.30;99.90;;;7.39;84.07;100454.31;5075185;28;20086;-71
2022/01/05 10:06:17;;;;;;;41.33;10.43;;;7.30;99.90;;;7.31;83.86;100456.94;5074896;28;20053;-70
2022/01/05 10:08:45;;;;;;;46.83;8.73;;;7.30;99.90;;;7.28;83.01;100455.19;5074858;28;20041;-72
2022/01/05 10:11:14;;;;;;;46.97;8.90;;;7.20;99.90;;;7.28;83.06;100463.06;5075085;28;20049;-71
2022/01/05 10:13:42;;;;;;;39.38;8.70;;;7.20;99.90;;;7.43;82.87;100459.59;5075090;28;20064;-72
2022/01/05 10:16:11;;;;;;;43.17;10.13;;;7.30;99.90;;;7.48;82.16;100476.25;5075337;28;20083;-70
2022/01/05 10:18:41;;;;;;;40.08;8.98;;;7.40;99.90;;;7.58;82.14;100496.47;5074954;28;20068;-70
2022/01/05 10:21:12;;;;;;;30.73;8.93;;;7.50;99.90;;;7.58;82.14;100479.78;5074560;28;20045;-69
2022/01/05 10:23:45;;;;;;;45.72;9.13;;;7.50;99.90;;;7.62;82.56;100498.22;5073456;28;20642;-69
2022/01/05 10:26:30;;;;;;;47.85;8.77;;;7.50;99.90;;;7.62;82.96;100490.31;5072900;28;20110;-72
2022/01/05 10:29:01;;;;;;;41.80;9.55;;;7.60;99.90;;;7.51;81.98;100493.81;5074433;28;20040;-70
2022/01/05 10:31:32;;;;;;;35.03;8.40;;;7.50;99.90;;;7.46;81.96;100495.53;5074606;28;20127;-73
2022/01/05 10:34:14;;;;;;;28.80;7.38;;;7.40;99.90;;;7.48;82.71;100502.56;5074336;28;20413;-71